createdAt,value
2023-01-04T00:01:06.333Z,101760.00
2023-01-04T00:03:34.059Z,101783.00
2023-01-04T00:06:04.269Z,101787.00
2023-01-04T00:08:31.236Z,101768.00
2023-01-04T00:11:02.388Z,101769.00
2023-01-04T00:13:30.243Z,101769.00
2023-01-04T00:16:01.086Z,101769.00
2023-01-04T00:18:34.177Z,101762.00
2023-01-04T00:21:11.642Z,101770.00
2023-01-04T00:23:39.533Z,101754.00
2023-01-04T00:26:26.467Z,101759.00
2023-01-04T00:29:12.967Z,101758.00
2023-01-04T00:31:39.869Z,101764.00
2023-01-04T00:34:06.835Z,101766.00
2023-01-04T00:36:34.347Z,101762.00
2023-01-04T00:39:08.830Z,101748.00
2023-01-04T00:44:28.130Z,101742.00
2023-01-04T00:46:54.939Z,101739.00
2023-01-04T00:49:21.588Z,101739.00
2023-01-04T00:51:48.391Z,101743.00
2023-01-04T00:54:15.997Z,101740.00
2023-01-04T00:56:43.131Z,101730.00
2023-01-04T00:59:11.848Z,101732.00
2023-01-04T01:01:39.855Z,101721.00
2023-01-04T01:04:06.873Z,101717.00
2023-01-04T01:06:34.448Z,101718.00
2023-01-04T01:09:01.341Z,101715.00
2023-01-04T01:11:29.378Z,101707.00
2023-01-04T01:13:56.613Z,101706.00
2023-01-04T01:16:51.958Z,101695.00
2023-01-04T01:19:11.404Z,101701.00
2023-01-04T01:21:38.682Z,101702.00
2023-01-04T01:24:06.320Z,101697.00
2023-01-04T01:26:33.060Z,101703.00
2023-01-04T01:28:59.809Z,101697.00
2023-01-04T01:31:28.431Z,101692.00
2023-01-04T01:33:56.662Z,101700.00
2023-01-04T01:36:25.373Z,101696.00
2023-01-04T01:38:52.369Z,101692.00
2023-01-04T01:41:20.427Z,101701.00
2023-01-04T01:43:57.412Z,101696.00
2023-01-04T01:46:35.619Z,101701.00
2023-01-04T01:49:20.205Z,101703.00
2023-01-04T01:51:47.005Z,101707.00
2023-01-04T01:54:20.806Z,101712.00
2023-01-04T01:56:51.303Z,101706.00
2023-01-04T01:59:18.791Z,101717.00
2023-01-04T02:01:45.671Z,101711.00
2023-01-04T02:04:14.010Z,101710.00
2023-01-04T02:06:46.122Z,101711.00
2023-01-04T02:09:13.223Z,101718.00
2023-01-04T02:11:39.834Z,101713.00
2023-01-04T02:14:27.095Z,101714.00
2023-01-04T02:16:56.780Z,101714.00
2023-01-04T02:19:48.283Z,101707.00
2023-01-04T02:22:49.516Z,101697.00
2023-01-04T02:25:35.111Z,101697.00
2023-01-04T02:28:32.277Z,101692.00
2023-01-04T02:31:20.314Z,101688.00
2023-01-04T02:34:12.720Z,101674.00
2023-01-04T02:37:11.349Z,101680.00
2023-01-04T02:40:08.404Z,101690.00
2023-01-04T02:43:13.886Z,101679.00
2023-01-04T02:45:48.021Z,101688.00
2023-01-04T02:48:33.084Z,101683.00
2023-01-04T02:51:01.258Z,101678.00
2023-01-04T02:53:38.917Z,101679.00
2023-01-04T02:56:17.217Z,101673.00
2023-01-04T02:59:07.010Z,101676.00
2023-01-04T03:02:15.527Z,101662.00
2023-01-04T03:05:39.628Z,101667.00
2023-01-04T03:08:12.099Z,101658.00
2023-01-04T03:11:47.630Z,101654.00
2023-01-04T03:14:32.573Z,101653.00
2023-01-04T03:17:02.901Z,101663.00
2023-01-04T03:19:50.291Z,101656.00
2023-01-04T03:22:38.698Z,101649.00
2023-01-04T03:25:26.793Z,101647.00
2023-01-04T03:28:14.348Z,101643.00
2023-01-04T03:31:10.444Z,101640.00
2023-01-04T03:33:56.274Z,101636.00
2023-01-04T03:36:38.939Z,101642.00
2023-01-04T03:39:48.794Z,101627.00
2023-01-04T03:42:48.686Z,101630.00
2023-01-04T03:45:49.131Z,101626.00
2023-01-04T03:48:32.408Z,101627.00
2023-01-04T03:51:14.797Z,101600.00
2023-01-04T03:53:56.698Z,101614.00
2023-01-04T03:56:24.995Z,101614.00
2023-01-04T03:58:52.422Z,101614.00
2023-01-04T04:01:20.944Z,101605.00
2023-01-04T04:04:06.332Z,101608.00
2023-01-04T04:06:51.487Z,101607.00
2023-01-04T04:09:18.091Z,101606.00
2023-01-04T04:11:44.699Z,101608.00
2023-01-04T04:14:11.319Z,101615.00
2023-01-04T04:16:38.016Z,101614.00
2023-01-04T04:19:08.902Z,101595.00
2023-01-04T04:21:36.431Z,101588.00
2023-01-04T04:24:03.711Z,101598.00
2023-01-04T04:26:30.395Z,101589.00
2023-01-04T04:28:57.094Z,101594.00
2023-01-04T04:31:23.892Z,101590.00
2023-01-04T04:33:50.553Z,101587.00
2023-01-04T04:36:17.199Z,101571.00
2023-01-04T04:38:43.788Z,101569.00
2023-01-04T04:41:31.015Z,101569.00
2023-01-04T04:43:58.264Z,101573.00
2023-01-04T04:46:25.195Z,101574.00
2023-01-04T04:48:51.923Z,101564.00
2023-01-04T04:51:18.608Z,101554.00
2023-01-04T04:53:45.313Z,101560.00
2023-01-04T04:56:12.581Z,101553.00
2023-01-04T04:58:39.541Z,101567.00
2023-01-04T05:01:06.988Z,101569.00
2023-01-04T05:03:34.526Z,101568.00
2023-01-04T05:06:01.290Z,101567.00
2023-01-04T05:08:27.946Z,101572.00
2023-01-04T05:10:54.594Z,101576.00
2023-01-04T05:13:21.349Z,101571.00
2023-01-04T05:15:52.838Z,101569.00
2023-01-04T05:18:20.864Z,101557.00
2023-01-04T05:20:48.163Z,101574.00
2023-01-04T05:23:17.017Z,101570.00
2023-01-04T05:25:43.777Z,101569.00
2023-01-04T05:28:11.043Z,101569.00
2023-01-04T05:30:55.423Z,101563.00
2023-01-04T05:33:30.531Z,101557.00
2023-01-04T05:36:01.885Z,101565.00
2023-01-04T05:38:29.017Z,101561.00
2023-01-04T05:40:56.426Z,101558.00
2023-01-04T05:43:24.375Z,101558.00
2023-01-04T05:45:54.466Z,101553.00
2023-01-04T05:48:22.828Z,101553.00
2023-01-04T05:50:50.179Z,101552.00
2023-01-04T05:53:18.337Z,101545.00
2023-01-04T05:55:47.540Z,101557.00
2023-01-04T05:58:14.417Z,101558.00
2023-01-04T06:00:41.037Z,101560.00
2023-01-04T06:03:07.821Z,101551.00
2023-01-04T06:05:34.496Z,101539.00
2023-01-04T06:08:01.154Z,101534.00
2023-01-04T06:10:27.808Z,101552.00
2023-01-04T06:12:54.413Z,101554.00
2023-01-04T06:15:21.106Z,101543.00
2023-01-04T06:17:47.722Z,101533.00
2023-01-04T06:20:14.390Z,101528.00
2023-01-04T06:22:41.918Z,101537.00
2023-01-04T06:25:09.297Z,101529.00
2023-01-04T06:27:36.496Z,101544.00
2023-01-04T06:30:04.482Z,101534.00
2023-01-04T06:32:31.073Z,101540.00
2023-01-04T06:34:57.770Z,101538.00
2023-01-04T06:37:24.484Z,101535.00
2023-01-04T06:39:51.199Z,101556.00
2023-01-04T06:42:36.355Z,101556.00
2023-01-04T06:45:03.904Z,101550.00
2023-01-04T06:47:30.599Z,101553.00
2023-01-04T06:49:57.271Z,101555.00
2023-01-04T06:52:23.926Z,101548.00
2023-01-04T06:54:50.532Z,101543.00
2023-01-04T06:57:17.127Z,101523.00
2023-01-04T06:59:43.704Z,101524.00
2023-01-04T07:02:15.150Z,101532.00
2023-01-04T07:04:42.612Z,101532.00
2023-01-04T07:07:09.591Z,101533.00
2023-01-04T07:09:36.248Z,101530.00
2023-01-04T07:12:02.950Z,101513.00
2023-01-04T07:14:29.606Z,101505.00
2023-01-04T07:16:56.215Z,101513.00
2023-01-04T07:19:22.818Z,101510.00
2023-01-04T07:21:49.502Z,101511.00
2023-01-04T07:24:16.117Z,101518.00
2023-01-04T07:26:42.737Z,101518.00
2023-01-04T07:29:20.167Z,101507.00
2023-01-04T07:31:49.857Z,101515.00
2023-01-04T07:34:18.277Z,101498.00
2023-01-04T07:36:45.134Z,101498.00
2023-01-04T07:39:12.709Z,101511.00
2023-01-04T07:41:40.805Z,101516.00
2023-01-04T07:44:08.478Z,101503.00
2023-01-04T07:46:36.131Z,101506.00
2023-01-04T07:49:09.169Z,101513.00
2023-01-04T07:51:39.803Z,101509.00
2023-01-04T07:54:06.424Z,101507.00
2023-01-04T07:56:33.103Z,101525.00
2023-01-04T07:58:59.778Z,101505.00
2023-01-04T08:01:27.767Z,101503.00
2023-01-04T08:03:54.599Z,101501.00
2023-01-04T08:06:21.923Z,101491.00
2023-01-04T08:08:48.911Z,101523.00
2023-01-04T08:11:18.064Z,101499.00
2023-01-04T08:13:44.999Z,101493.00
2023-01-04T08:16:20.706Z,101495.00
2023-01-04T08:18:48.005Z,101508.00
2023-01-04T08:21:14.825Z,101511.00
2023-01-04T08:23:41.475Z,101510.00
2023-01-04T08:26:11.545Z,101517.00
2023-01-04T08:28:38.437Z,101531.00
2023-01-04T08:31:14.771Z,101530.00
2023-01-04T08:33:42.760Z,101503.00
2023-01-04T08:36:12.900Z,101509.00
2023-01-04T08:41:56.803Z,101514.00
2023-01-04T08:44:13.071Z,101514.00
2023-01-04T08:46:39.774Z,101522.00
2023-01-04T08:49:07.121Z,101542.00
2023-01-04T08:51:33.775Z,101528.00
2023-01-04T08:54:00.366Z,101511.00
2023-01-04T08:56:27.031Z,101512.00
2023-01-04T08:58:53.693Z,101526.00
2023-01-04T09:01:20.457Z,101527.00
2023-01-04T09:03:47.104Z,101508.00
2023-01-04T09:06:16.131Z,101512.00
2023-01-04T09:08:44.219Z,101500.00
2023-01-04T09:11:14.278Z,101520.00
2023-01-04T09:13:41.783Z,101522.00
2023-01-04T09:16:11.652Z,101514.00
2023-01-04T09:18:38.836Z,101525.00
2023-01-04T09:21:16.813Z,101528.00
2023-01-04T09:23:43.903Z,101528.00
2023-01-04T09:26:19.001Z,101528.00
2023-01-04T09:28:45.893Z,101537.00
2023-01-04T09:31:15.532Z,101526.00
2023-01-04T09:34:12.826Z,101523.00
2023-01-04T09:36:30.137Z,101525.00
2023-01-04T09:38:56.790Z,101524.00
2023-01-04T09:41:31.348Z,101537.00
2023-01-04T09:45:03.109Z,101544.00
2023-01-04T09:47:33.382Z,101542.00
2023-01-04T09:50:06.931Z,101547.00
2023-01-04T09:52:47.775Z,101550.00
2023-01-04T09:55:39.135Z,101555.00
2023-01-04T09:58:20.842Z,101559.00
2023-01-04T10:00:52.909Z,101562.00
2023-01-04T10:03:25.909Z,101566.00
2023-01-04T10:05:54.879Z,101556.00
2023-01-04T10:08:21.821Z,101565.00
2023-01-04T10:11:14.730Z,101557.00
2023-01-04T10:13:56.390Z,101555.00
2023-01-04T10:23:17.372Z,101562.00
2023-01-04T10:26:00.987Z,101566.00
2023-01-04T10:28:27.607Z,101576.00
2023-01-04T10:31:38.479Z,101563.00
2023-01-04T10:33:55.346Z,101567.00
2023-01-04T10:36:34.228Z,101561.00
2023-01-04T10:39:04.141Z,101571.00
2023-01-04T10:41:39.304Z,101571.00
2023-01-04T10:44:18.629Z,101556.00
2023-01-04T10:47:11.619Z,101559.00
2023-01-04T10:49:49.258Z,101556.00
2023-01-04T10:52:32.025Z,101552.00
2023-01-04T10:55:13.756Z,101543.00
2023-01-04T10:57:52.583Z,101538.00
2023-01-04T11:00:28.120Z,101538.00
2023-01-04T11:03:25.443Z,101535.00
2023-01-04T11:06:10.834Z,101536.00
2023-01-04T11:08:44.566Z,101548.00
2023-01-04T11:11:22.660Z,101550.00
2023-01-04T11:13:49.891Z,101559.00
2023-01-04T11:16:16.702Z,101554.00
2023-01-04T11:18:45.648Z,101545.00
2023-01-04T11:21:14.648Z,101541.00
2023-01-04T11:23:41.308Z,101552.00
2023-01-04T11:26:31.178Z,101546.00
2023-01-04T11:29:20.491Z,101562.00
2023-01-04T11:31:56.607Z,101555.00
2023-01-04T11:34:55.015Z,101555.00
2023-01-04T11:37:29.539Z,101560.00
2023-01-04T11:40:17.153Z,101556.00
2023-01-04T11:42:50.201Z,101555.00
2023-01-04T11:45:28.211Z,101553.00
2023-01-04T11:47:56.886Z,101547.00
2023-01-04T11:50:42.749Z,101557.00
2023-01-04T11:53:34.804Z,101544.00
2023-01-04T11:56:15.367Z,101554.00
2023-01-04T11:58:43.572Z,101550.00
2023-01-04T12:01:24.768Z,101549.00
2023-01-04T12:03:52.079Z,101546.00
2023-01-04T12:06:30.767Z,101546.00
2023-01-04T12:08:57.773Z,101549.00
2023-01-04T12:11:50.440Z,101542.00
2023-01-04T12:14:28.897Z,101537.00
2023-01-04T12:17:14.332Z,101537.00
2023-01-04T12:19:43.449Z,101534.00
2023-01-04T12:22:19.965Z,101528.00
2023-01-04T12:24:47.333Z,101518.00
2023-01-04T12:27:15.232Z,101529.00
2023-01-04T12:30:05.262Z,101538.00
2023-01-04T12:32:31.796Z,101538.00
2023-01-04T12:34:58.418Z,101527.00
2023-01-04T12:37:48.546Z,101535.00
2023-01-04T12:40:48.833Z,101540.00
2023-01-04T12:43:15.569Z,101538.00
2023-01-04T12:45:48.476Z,101525.00
2023-01-04T12:48:45.760Z,101528.00
2023-01-04T12:51:33.379Z,101531.00
2023-01-04T12:54:05.943Z,101531.00
2023-01-04T12:57:10.492Z,101532.00
2023-01-04T12:59:54.188Z,101527.00
2023-01-04T13:02:21.069Z,101532.00
2023-01-04T13:04:49.083Z,101522.00
2023-01-04T13:07:49.762Z,101519.00
2023-01-04T13:10:24.047Z,101514.00
2023-01-04T13:13:17.687Z,101519.00
2023-01-04T13:16:05.441Z,101530.00
2023-01-04T13:18:59.308Z,101519.00
2023-01-04T13:21:38.768Z,101513.00
2023-01-04T13:24:34.249Z,101511.00
2023-01-04T13:27:10.324Z,101515.00
2023-01-04T13:29:37.211Z,101514.00
2023-01-04T13:32:09.753Z,101516.00
2023-01-04T13:34:56.604Z,101511.00
2023-01-04T13:37:36.813Z,101527.00
2023-01-04T13:40:25.129Z,101511.00
2023-01-04T13:43:00.703Z,101521.00
2023-01-04T13:45:45.786Z,101517.00
2023-01-04T13:48:19.746Z,101515.00
2023-01-04T13:50:59.785Z,101511.00
2023-01-04T13:53:28.336Z,101518.00
2023-01-04T13:55:59.784Z,101526.00
2023-01-04T13:58:35.502Z,101524.00
2023-01-04T14:01:17.982Z,101514.00
2023-01-04T14:03:57.421Z,101506.00
2023-01-04T14:06:31.689Z,101517.00
2023-01-04T14:09:14.728Z,101512.00
2023-01-04T14:12:07.648Z,101500.00
2023-01-04T14:14:50.730Z,101508.00
2023-01-04T14:17:31.696Z,101502.00
2023-01-04T14:20:06.037Z,101525.00
2023-01-04T14:22:38.559Z,101522.00
2023-01-04T14:25:37.071Z,101538.00
2023-01-04T14:28:22.659Z,101535.00
2023-01-04T14:31:12.002Z,101539.00
2023-01-04T14:33:47.443Z,101547.00
2023-01-04T14:36:30.126Z,101535.00
2023-01-04T14:39:09.684Z,101531.00
2023-01-04T14:41:36.319Z,101527.00
2023-01-04T14:44:06.109Z,101526.00
2023-01-04T14:46:32.913Z,101546.00
2023-01-04T14:48:59.880Z,101547.00
2023-01-04T14:51:34.357Z,101550.00
2023-01-04T14:54:01.177Z,101554.00
2023-01-04T14:56:27.875Z,101561.00
2023-01-04T14:58:54.454Z,101570.00
2023-01-04T15:01:21.242Z,101566.00
2023-01-04T15:03:48.055Z,101564.00
2023-01-04T15:06:14.799Z,101569.00
2023-01-04T15:08:41.358Z,101583.00
2023-01-04T15:11:10.002Z,101569.00
2023-01-04T15:13:39.845Z,101569.00
2023-01-04T15:16:09.938Z,101580.00
2023-01-04T15:18:36.699Z,101563.00
2023-01-04T15:21:04.196Z,101575.00
2023-01-04T15:23:30.845Z,101575.00
2023-01-04T15:25:57.544Z,101573.00
2023-01-04T15:28:26.413Z,101550.00
2023-01-04T15:30:53.357Z,101554.00
2023-01-04T15:33:20.177Z,101551.00
2023-01-04T15:35:47.561Z,101551.00
2023-01-04T15:38:18.410Z,101565.00
2023-01-04T15:40:45.317Z,101565.00
2023-01-04T15:43:12.051Z,101569.00
2023-01-04T15:45:39.723Z,101570.00
2023-01-04T15:48:08.240Z,101570.00
2023-01-04T15:50:37.927Z,101563.00
2023-01-04T15:53:06.224Z,101577.00
2023-01-04T15:55:36.637Z,101577.00
2023-01-04T15:58:07.351Z,101584.00
2023-01-04T16:00:34.637Z,101579.00
2023-01-04T16:03:01.257Z,101579.00
2023-01-04T16:05:27.991Z,101561.00
2023-01-04T16:07:54.598Z,101572.00
2023-01-04T16:10:21.349Z,101574.00
2023-01-04T16:12:54.702Z,101573.00
2023-01-04T16:15:23.806Z,101565.00
2023-01-04T16:17:50.586Z,101561.00
2023-01-04T16:20:18.132Z,101567.00
2023-01-04T16:22:44.809Z,101558.00
2023-01-04T16:25:12.574Z,101555.00
2023-01-04T16:27:40.488Z,101562.00
2023-01-04T16:30:14.129Z,101558.00
2023-01-04T16:32:43.246Z,101562.00
2023-01-04T16:35:11.002Z,101574.00
2023-01-04T16:37:38.107Z,101577.00
2023-01-04T16:40:07.226Z,101570.00
2023-01-04T16:42:35.077Z,101569.00
2023-01-04T16:45:01.791Z,101566.00
2023-01-04T16:47:28.446Z,101550.00
2023-01-04T16:49:55.182Z,101551.00
2023-01-04T16:52:22.296Z,101550.00
2023-01-04T16:54:49.377Z,101554.00
2023-01-04T16:57:16.053Z,101554.00
2023-01-04T16:59:42.762Z,101560.00
2023-01-04T17:02:12.285Z,101569.00
2023-01-04T17:04:39.063Z,101584.00
2023-01-04T17:07:06.436Z,101571.00
2023-01-04T17:09:33.234Z,101590.00
2023-01-04T17:15:08.014Z,101592.00
2023-01-04T17:17:37.746Z,101586.00
2023-01-04T17:20:06.483Z,101595.00
2023-01-04T17:22:34.782Z,101615.00
2023-01-04T17:25:01.726Z,101617.00
2023-01-04T17:27:28.351Z,101606.00
2023-01-04T17:29:54.951Z,101607.00
2023-01-04T17:32:21.580Z,101628.00
2023-01-04T17:34:49.964Z,101619.00
2023-01-04T17:37:16.608Z,101628.00
2023-01-04T17:39:43.273Z,101642.00
2023-01-04T17:42:10.029Z,101646.00
2023-01-04T17:44:36.740Z,101645.00
2023-01-04T17:47:03.324Z,101654.00
2023-01-04T17:49:32.180Z,101666.00
2023-01-04T17:51:59.289Z,101655.00
2023-01-04T17:54:27.025Z,101652.00
2023-01-04T17:56:53.885Z,101658.00
2023-01-04T17:59:20.594Z,101659.00
2023-01-04T18:01:47.379Z,101672.00
2023-01-04T18:04:14.301Z,101668.00
2023-01-04T18:06:40.913Z,101654.00
2023-01-04T18:09:09.113Z,101669.00
2023-01-04T18:11:36.169Z,101667.00
2023-01-04T18:14:06.144Z,101655.00
2023-01-04T18:16:56.610Z,101662.00
2023-01-04T18:19:26.100Z,101659.00
2023-01-04T18:21:53.037Z,101675.00
2023-01-04T18:24:37.151Z,101671.00
2023-01-04T18:27:22.012Z,101661.00
2023-01-04T18:29:50.979Z,101691.00
2023-01-04T18:32:17.884Z,101691.00
2023-01-04T18:34:44.647Z,101692.00
2023-01-04T18:37:11.263Z,101698.00
2023-01-04T18:39:37.967Z,101709.00
2023-01-04T18:42:04.588Z,101694.00
2023-01-04T18:44:33.450Z,101702.00
2023-01-04T18:47:01.511Z,101703.00
2023-01-04T18:49:28.149Z,101693.00
2023-01-04T18:51:54.747Z,101698.00
2023-01-04T18:54:21.793Z,101699.00
2023-01-04T18:56:49.087Z,101698.00
2023-01-04T18:59:19.079Z,101700.00
2023-01-04T19:01:46.186Z,101698.00
2023-01-04T19:04:16.117Z,101710.00
2023-01-04T19:06:43.117Z,101713.00
2023-01-04T19:09:10.093Z,101706.00
2023-01-04T19:11:36.738Z,101701.00
2023-01-04T19:14:04.064Z,101705.00
2023-01-04T19:16:31.828Z,101719.00
2023-01-04T19:19:01.677Z,101713.00
2023-01-04T19:21:28.742Z,101704.00
2023-01-04T19:23:56.137Z,101696.00
2023-01-04T19:26:23.638Z,101682.00
2023-01-04T19:28:50.712Z,101715.00
2023-01-04T19:31:19.703Z,101720.00
2023-01-04T19:33:46.920Z,101720.00
2023-01-04T19:36:15.486Z,101711.00
2023-01-04T19:38:42.175Z,101718.00
2023-01-04T19:41:16.319Z,101716.00
2023-01-04T19:43:43.127Z,101715.00
2023-01-04T19:46:11.879Z,101726.00
2023-01-04T19:48:39.295Z,101726.00
2023-01-04T19:51:09.968Z,101732.00
2023-01-04T19:53:36.959Z,101736.00
2023-01-04T19:56:04.157Z,101718.00
2023-01-04T19:58:31.131Z,101729.00
2023-01-04T20:00:57.861Z,101745.00
2023-01-04T20:03:27.923Z,101737.00
2023-01-04T20:05:55.019Z,101738.00
2023-01-04T20:08:22.251Z,101738.00
2023-01-04T20:10:56.434Z,101759.00
2023-01-04T20:13:23.499Z,101757.00
2023-01-04T20:15:51.534Z,101754.00
2023-01-04T20:18:18.493Z,101755.00
2023-01-04T20:20:45.708Z,101767.00
2023-01-04T20:23:13.486Z,101755.00
2023-01-04T20:25:42.152Z,101753.00
2023-01-04T20:28:08.986Z,101752.00
2023-01-04T20:30:35.693Z,101762.00
2023-01-04T20:33:02.545Z,101756.00
2023-01-04T20:35:29.250Z,101759.00
2023-01-04T20:37:57.790Z,101763.00
2023-01-04T20:40:28.615Z,101766.00
2023-01-04T20:43:13.871Z,101756.00
2023-01-04T20:45:48.053Z,101755.00
2023-01-04T20:48:15.711Z,101763.00
2023-01-04T20:50:42.758Z,101768.00
2023-01-04T20:53:09.587Z,101755.00
2023-01-04T20:55:40.457Z,101760.00
2023-01-04T20:58:12.681Z,101773.00
2023-01-04T21:00:40.516Z,101779.00
2023-01-04T21:03:09.616Z,101784.00
2023-01-04T21:05:38.274Z,101793.00
2023-01-04T21:08:05.244Z,101778.00
2023-01-04T21:10:32.227Z,101788.00
2023-01-04T21:12:58.829Z,101773.00
2023-01-04T21:15:25.508Z,101764.00
2023-01-04T21:17:52.106Z,101765.00
2023-01-04T21:20:18.779Z,101775.00
2023-01-04T21:22:45.399Z,101781.00
2023-01-04T21:25:12.004Z,101785.00
2023-01-04T21:27:38.746Z,101788.00
2023-01-04T21:30:06.162Z,101796.00
2023-01-04T21:32:32.827Z,101790.00
2023-01-04T21:34:59.461Z,101793.00
2023-01-04T21:37:26.093Z,101796.00
2023-01-04T21:39:52.822Z,101792.00
2023-01-04T21:42:19.562Z,101799.00
2023-01-04T21:44:46.146Z,101795.00
2023-01-04T21:47:12.837Z,101801.00
2023-01-04T21:49:43.795Z,101815.00
2023-01-04T21:52:11.062Z,101813.00
2023-01-04T21:54:38.288Z,101802.00
2023-01-04T21:57:08.108Z,101807.00
2023-01-04T21:59:36.167Z,101809.00
2023-01-04T22:02:03.398Z,101807.00
2023-01-04T22:04:30.542Z,101820.00
2023-01-04T22:06:57.395Z,101827.00
2023-01-04T22:09:24.383Z,101823.00
2023-01-04T22:11:53.317Z,101830.00
2023-01-04T22:14:20.025Z,101823.00
2023-01-04T22:16:46.752Z,101826.00
2023-01-04T22:19:14.484Z,101823.00
2023-01-04T22:21:42.526Z,101823.00
2023-01-04T22:24:13.317Z,101823.00
2023-01-04T22:26:40.758Z,101812.00
2023-01-04T22:29:10.124Z,101812.00
2023-01-04T22:31:37.073Z,101807.00
2023-01-04T22:34:03.750Z,101814.00
2023-01-04T22:36:30.432Z,101809.00
2023-01-04T22:38:57.697Z,101814.00
2023-01-04T22:41:27.527Z,101813.00
2023-01-04T22:43:56.583Z,101815.00
2023-01-04T22:46:24.114Z,101816.00
2023-01-04T22:48:50.818Z,101806.00
2023-01-04T22:51:27.633Z,101811.00
2023-01-04T22:53:59.692Z,101803.00
2023-01-04T22:56:27.563Z,101803.00
2023-01-04T22:58:55.888Z,101802.00
2023-01-04T23:01:25.634Z,101811.00
2023-01-04T23:03:53.174Z,101816.00
2023-01-04T23:06:20.838Z,101815.00
2023-01-04T23:08:48.610Z,101827.00
2023-01-04T23:11:17.573Z,101826.00
2023-01-04T23:13:45.281Z,101831.00
2023-01-04T23:16:14.450Z,101847.00
2023-01-04T23:18:41.560Z,101828.00
2023-01-04T23:21:08.228Z,101838.00
2023-01-04T23:23:34.923Z,101831.00
2023-01-04T23:26:21.882Z,101839.00
2023-01-04T23:28:49.725Z,101835.00
2023-01-04T23:31:19.761Z,101865.00
2023-01-04T23:33:46.791Z,101857.00
2023-01-04T23:36:19.015Z,101848.00
2023-01-04T23:38:50.605Z,101856.00
2023-01-04T23:41:17.265Z,101855.00
2023-01-04T23:43:43.815Z,101853.00
2023-01-04T23:46:17.929Z,101856.00
2023-01-04T23:48:44.839Z,101876.00
2023-01-04T23:51:15.197Z,101859.00
2023-01-04T23:53:41.836Z,101870.00
2023-01-04T23:56:14.822Z,101869.00
2023-01-04T23:58:41.912Z,101856.00
